createdAt,value
2018-11-23T00:00:06.478Z,45.41
2018-11-23T00:01:20.976Z,46.88
2018-11-23T00:02:36.408Z,46.39
2018-11-23T00:03:27.974Z,46.88
2018-11-23T00:04:06.981Z,45.90
2018-11-23T00:05:07.478Z,45.41
2018-11-23T00:06:08.408Z,45.65
2018-11-23T00:07:31.974Z,46.39
2018-11-23T00:08:07.475Z,46.39
2018-11-23T00:09:28.971Z,45.65
2018-11-23T00:14:12.187Z,46.63
2018-11-23T00:15:10.752Z,45.65
2018-11-23T00:16:33.219Z,45.90
2018-11-23T00:19:43.570Z,45.41
2018-11-23T00:20:43.571Z,45.41
2018-11-23T00:21:43.569Z,45.65
2018-11-23T00:22:44.076Z,46.39
2018-11-23T00:24:08.569Z,46.39
2018-11-23T00:24:44.069Z,46.14
2018-11-23T00:25:44.069Z,45.90
2018-11-23T00:26:44.569Z,45.65
2018-11-23T00:27:44.568Z,45.90
2018-11-23T00:29:09.069Z,46.63
2018-11-23T00:29:44.574Z,48.10
2018-11-23T00:30:45.069Z,46.63
2018-11-23T00:31:45.070Z,47.12
2018-11-23T00:33:06.068Z,45.90
2018-11-23T00:34:10.068Z,46.63
2018-11-23T00:34:45.568Z,46.39
2018-11-23T00:35:45.569Z,46.14
2018-11-23T00:37:09.507Z,46.14
2018-11-23T00:37:45.571Z,45.90
2018-11-23T00:39:10.566Z,61.77
2018-11-23T00:39:46.073Z,46.88
2018-11-23T00:40:46.071Z,46.63
2018-11-23T00:41:46.066Z,45.65
2018-11-23T00:42:46.573Z,45.65
2018-11-23T00:43:46.569Z,45.65
2018-11-23T00:44:50.071Z,46.63
2018-11-23T00:45:46.568Z,46.63
2018-11-23T00:47:01.068Z,46.14
2018-11-23T00:48:07.262Z,45.65
2018-11-23T00:48:53.069Z,45.90
2018-11-23T00:50:17.568Z,47.61
2018-11-23T00:50:47.067Z,46.39
2018-11-23T00:54:19.292Z,46.14
2018-11-23T00:55:22.792Z,46.39
2018-11-23T00:56:19.292Z,46.39
2018-11-23T00:59:51.013Z,46.14
2018-11-23T01:00:54.527Z,46.88
2018-11-23T01:04:22.739Z,45.90
2018-11-23T01:05:22.785Z,45.65
2018-11-23T01:09:18.579Z,45.65
2018-11-23T01:09:57.578Z,45.41
2018-11-23T01:13:29.220Z,46.63
2018-11-23T01:14:29.807Z,45.90
2018-11-23T01:15:51.304Z,45.90
2018-11-23T01:16:30.302Z,46.14
2018-11-23T01:17:55.301Z,46.63
2018-11-23T01:18:30.302Z,46.14
2018-11-23T01:19:53.803Z,51.76
2018-11-23T01:20:30.808Z,55.42
2018-11-23T01:21:30.803Z,46.14
2018-11-23T01:22:30.802Z,46.63
2018-11-23T01:23:55.318Z,46.39
2018-11-23T01:24:52.307Z,45.90
2018-11-23T01:25:31.302Z,46.39
2018-11-23T01:26:52.307Z,46.63
2018-11-23T01:27:32.736Z,68.85
2018-11-23T01:28:35.302Z,46.88
2018-11-23T01:29:31.806Z,46.63
2018-11-23T01:30:52.805Z,47.12
2018-11-23T01:31:53.301Z,45.90
2018-11-23T01:32:32.301Z,46.39
2018-11-23T01:33:32.303Z,46.88
2018-11-23T01:34:36.807Z,47.36
2018-11-23T01:35:53.800Z,45.90
2018-11-23T01:36:32.801Z,46.14
2018-11-23T01:37:32.814Z,46.39
2018-11-23T01:38:32.800Z,46.63
2018-11-23T01:43:41.043Z,46.39
2018-11-23T01:44:45.044Z,46.63
2018-11-23T01:45:41.543Z,47.36
2018-11-23T01:46:41.544Z,46.14
2018-11-23T01:47:41.547Z,45.90
2018-11-23T01:48:41.543Z,46.39
2018-11-23T01:49:41.140Z,47.12
2018-11-23T01:50:46.043Z,46.88
2018-11-23T01:51:43.013Z,46.39
2018-11-23T01:52:42.046Z,47.61
2018-11-23T01:53:42.043Z,46.39
2018-11-23T01:54:42.042Z,46.88
2018-11-23T01:55:42.542Z,47.36
2018-11-23T01:56:46.042Z,47.12
2018-11-23T01:57:42.543Z,47.12
2018-11-23T01:58:42.552Z,47.85
2018-11-23T01:59:43.042Z,47.36
2018-11-23T02:00:43.049Z,47.12
2018-11-23T02:08:21.554Z,45.65
2018-11-23T02:09:21.567Z,81.30
2018-11-23T02:10:43.054Z,67.14
2018-11-23T02:11:43.061Z,46.63
2018-11-23T02:12:26.060Z,46.88
2018-11-23T02:13:22.054Z,45.90
2018-11-23T02:17:14.778Z,49.80
2018-11-23T02:18:18.777Z,46.88
2018-11-23T02:21:25.507Z,46.88
2018-11-23T02:22:26.010Z,47.36
2018-11-23T02:26:22.024Z,46.14
2018-11-23T02:27:01.027Z,47.12
2018-11-23T02:28:01.522Z,46.88
2018-11-23T02:29:03.522Z,47.12
2018-11-23T02:30:01.529Z,46.39
2018-11-23T02:31:01.521Z,46.88
2018-11-23T02:32:23.025Z,46.63
2018-11-23T02:33:02.024Z,46.63
2018-11-23T02:34:27.022Z,46.88
2018-11-23T02:35:23.023Z,45.65
2018-11-23T02:36:25.956Z,45.90
2018-11-23T02:37:02.521Z,46.39
2018-11-23T02:38:02.520Z,47.12
2018-11-23T02:39:02.525Z,47.36
2018-11-23T02:40:28.463Z,46.63
2018-11-23T02:41:03.028Z,45.90
2018-11-23T02:42:03.026Z,46.39
2018-11-23T02:43:03.021Z,47.36
2018-11-23T02:44:03.026Z,46.88
2018-11-23T02:45:07.024Z,46.88
2018-11-23T02:46:03.534Z,46.14
2018-11-23T02:47:02.866Z,46.39
2018-11-23T02:48:03.524Z,46.63
2018-11-23T02:49:04.021Z,47.12
2018-11-23T02:55:13.906Z,47.36
2018-11-23T02:56:11.228Z,47.12
2018-11-23T02:57:13.156Z,46.63
2018-11-23T02:58:32.714Z,46.63
2018-11-23T03:01:42.945Z,46.39
2018-11-23T03:02:42.943Z,46.39
2018-11-23T03:03:43.444Z,46.88
2018-11-23T03:04:45.444Z,48.58
2018-11-23T03:05:47.443Z,47.36
2018-11-23T03:06:45.451Z,46.63
2018-11-23T03:07:43.047Z,46.63
2018-11-23T03:09:04.944Z,46.14
2018-11-23T03:09:43.944Z,46.63
2018-11-23T03:10:43.948Z,46.88
2018-11-23T03:11:47.443Z,47.12
2018-11-23T03:13:05.444Z,46.39
2018-11-23T03:13:44.443Z,47.12
2018-11-23T03:15:05.447Z,46.14
2018-11-23T03:16:05.444Z,47.85
2018-11-23T03:17:09.444Z,46.63
2018-11-23T03:17:44.944Z,46.14
2018-11-23T03:18:44.943Z,46.39
2018-11-23T03:19:44.945Z,46.14
2018-11-23T03:20:45.451Z,47.85
2018-11-23T03:21:45.443Z,47.36
2018-11-23T03:22:49.442Z,46.88
2018-11-23T03:23:45.446Z,47.36
2018-11-23T03:29:09.895Z,46.63
2018-11-23T03:29:50.329Z,47.12
2018-11-23T03:33:45.561Z,79.83
2018-11-23T03:34:20.568Z,46.14
2018-11-23T03:35:21.064Z,47.85
2018-11-23T03:36:21.061Z,48.83
2018-11-23T03:37:21.066Z,47.61
2018-11-23T03:38:45.521Z,48.10
2018-11-23T03:39:21.560Z,46.88
2018-11-23T03:40:21.621Z,46.14
2018-11-23T03:41:21.560Z,46.39
2018-11-23T03:42:21.568Z,46.88
2018-11-23T03:43:46.060Z,47.85
2018-11-23T03:44:22.067Z,47.12
2018-11-23T03:45:22.060Z,46.39
2018-11-23T03:46:22.062Z,48.34
2018-11-23T03:47:43.558Z,47.61
2018-11-23T03:48:22.560Z,47.12
2018-11-23T03:49:26.559Z,47.12
2018-11-23T03:50:22.578Z,46.63
2018-11-23T03:51:23.110Z,47.85
2018-11-23T03:52:23.060Z,46.63
2018-11-23T03:53:23.060Z,47.36
2018-11-23T03:57:22.682Z,46.14
2018-11-23T03:57:58.755Z,46.63
2018-11-23T03:59:19.311Z,89.60
2018-11-23T04:02:34.405Z,47.85
2018-11-23T04:03:55.405Z,47.85
2018-11-23T04:04:34.911Z,47.61
2018-11-23T04:08:09.583Z,49.32
2018-11-23T04:09:09.570Z,85.45
2018-11-23T04:15:34.535Z,47.61
2018-11-23T04:16:13.527Z,47.36
2018-11-23T04:17:45.026Z,81.79
2018-11-23T04:18:35.023Z,54.44
2018-11-23T04:19:14.023Z,47.85
2018-11-23T04:20:14.030Z,47.85
2018-11-23T04:21:14.525Z,87.16
2018-11-23T04:22:14.523Z,83.74
2018-11-23T04:23:18.025Z,88.13
2018-11-23T04:24:14.525Z,48.34
2018-11-23T04:28:07.245Z,48.10
2018-11-23T04:28:50.248Z,53.47
2018-11-23T04:30:07.755Z,80.57
2018-11-23T04:31:07.746Z,86.18
2018-11-23T04:31:46.745Z,54.20
2018-11-23T04:32:46.747Z,47.36
2018-11-23T04:34:11.746Z,61.52
2018-11-23T04:34:47.307Z,86.91
2018-11-23T04:35:50.679Z,78.86
2018-11-23T04:39:22.212Z,47.61
2018-11-23T04:40:18.717Z,83.74
2018-11-23T04:41:19.211Z,47.12
2018-11-23T04:48:18.676Z,60.06
2018-11-23T04:51:51.412Z,47.85
2018-11-23T04:52:51.435Z,47.12
2018-11-23T04:53:51.410Z,46.88
2018-11-23T04:57:02.147Z,84.47
2018-11-23T04:58:02.140Z,83.50
2018-11-23T04:59:23.643Z,83.98
2018-11-23T05:00:02.650Z,54.93
2018-11-23T05:01:02.646Z,83.25
2018-11-23T05:07:43.627Z,47.61
2018-11-23T05:08:41.625Z,47.85
2018-11-23T05:09:41.624Z,47.85
2018-11-23T05:11:02.629Z,47.85
2018-11-23T05:11:41.631Z,48.34
2018-11-23T05:12:47.580Z,48.34
2018-11-23T05:16:15.368Z,84.47
2018-11-23T05:17:13.929Z,50.54
2018-11-23T05:18:17.462Z,83.98
2018-11-23T05:19:14.434Z,82.52
2018-11-23T05:20:15.362Z,86.43
2018-11-23T05:21:14.431Z,47.36
2018-11-23T05:22:14.429Z,47.12
2018-11-23T05:23:18.928Z,87.16
2018-11-23T05:24:14.933Z,84.23
2018-11-23T05:25:14.928Z,49.80
2018-11-23T05:26:14.930Z,47.85
2018-11-23T05:27:15.432Z,79.35
2018-11-23T05:28:18.928Z,82.52
2018-11-23T05:29:16.406Z,48.34
2018-11-23T05:30:15.460Z,88.13
2018-11-23T05:31:15.926Z,62.26
2018-11-23T05:36:07.619Z,84.96
2018-11-23T05:37:08.153Z,88.13
2018-11-23T05:38:07.183Z,83.50
2018-11-23T05:39:10.721Z,81.05
2018-11-23T05:40:07.183Z,85.45
2018-11-23T05:41:32.617Z,81.54
2018-11-23T05:42:07.182Z,47.36
2018-11-23T05:45:40.908Z,47.85
2018-11-23T05:46:38.913Z,47.85
2018-11-23T05:50:15.140Z,72.51
2018-11-23T05:51:32.138Z,47.61
2018-11-23T05:52:11.635Z,87.40
2018-11-23T05:53:32.635Z,48.10
2018-11-23T05:54:11.638Z,87.40
2018-11-23T05:55:11.645Z,81.05
2018-11-23T05:56:15.137Z,87.16
2018-11-23T05:57:14.072Z,79.10
2018-11-23T05:58:33.133Z,85.94
2018-11-23T05:59:12.135Z,80.08
2018-11-23T06:04:19.582Z,81.54
2018-11-23T06:05:42.040Z,83.74
2018-11-23T06:06:43.075Z,49.07
2018-11-23T06:07:44.080Z,48.58
2018-11-23T06:08:20.080Z,84.96
2018-11-23T06:09:20.071Z,84.23
2018-11-23T06:10:43.571Z,71.53
2018-11-23T06:11:41.573Z,83.50
2018-11-23T06:12:45.571Z,84.47
2018-11-23T06:13:20.571Z,83.74
2018-11-23T06:14:23.099Z,84.23
2018-11-23T06:15:21.071Z,88.38
2018-11-23T06:16:23.138Z,85.45
2018-11-23T06:17:21.082Z,88.38
2018-11-23T06:18:24.570Z,87.16
2018-11-23T06:19:22.525Z,84.72
2018-11-23T06:20:21.584Z,86.91
2018-11-23T06:21:21.591Z,84.96
2018-11-23T06:22:21.573Z,88.87
2018-11-23T06:23:25.570Z,84.47
2018-11-23T06:24:22.072Z,85.45
2018-11-23T06:25:22.070Z,90.33
2018-11-23T06:26:22.144Z,49.32
2018-11-23T06:29:53.746Z,88.13
2018-11-23T06:30:53.742Z,48.83
2018-11-23T06:31:54.250Z,86.43
2018-11-23T06:32:56.677Z,89.60
2018-11-23T06:33:54.240Z,88.62
2018-11-23T06:35:19.241Z,84.72
2018-11-23T06:35:54.742Z,86.67
2018-11-23T06:36:54.741Z,86.43
2018-11-23T06:37:54.741Z,81.30
2018-11-23T06:38:54.745Z,84.72
2018-11-23T06:39:55.241Z,83.98
2018-11-23T06:41:25.175Z,82.76
2018-11-23T06:41:55.241Z,83.98
2018-11-23T06:42:55.241Z,49.80
2018-11-23T06:43:55.740Z,52.98
2018-11-23T06:44:55.748Z,84.96
2018-11-23T06:45:59.253Z,83.25
2018-11-23T06:46:55.739Z,85.21
2018-11-23T06:47:56.246Z,84.47
2018-11-23T06:48:55.456Z,85.94
2018-11-23T06:49:56.245Z,85.45
2018-11-23T06:53:52.359Z,87.65
2018-11-23T06:54:30.950Z,58.35
2018-11-23T06:55:52.862Z,87.89
2018-11-23T06:56:35.357Z,75.20
2018-11-23T06:57:52.861Z,86.91
2018-11-23T06:58:31.858Z,66.89
2018-11-23T06:59:33.310Z,84.47
2018-11-23T07:00:32.362Z,86.91
2018-11-23T07:02:02.897Z,90.09
2018-11-23T07:02:32.361Z,88.62
2018-11-23T07:03:33.817Z,54.44
2018-11-23T07:04:53.361Z,85.45
2018-11-23T07:05:32.358Z,65.92
2018-11-23T07:06:32.863Z,85.45
2018-11-23T07:11:39.804Z,86.43
2018-11-23T07:12:43.763Z,85.94
2018-11-23T07:17:53.087Z,50.29
2018-11-23T07:18:43.580Z,83.98
2018-11-23T07:20:04.583Z,64.21
2018-11-23T07:20:45.014Z,86.43
2018-11-23T07:21:44.079Z,87.89
2018-11-23T07:23:11.555Z,79.10
2018-11-23T07:23:43.531Z,87.16
2018-11-23T07:24:43.610Z,53.96
2018-11-23T07:28:18.904Z,87.16
2018-11-23T07:35:54.236Z,78.13
2018-11-23T07:36:54.238Z,83.98
2018-11-23T07:37:54.741Z,87.40
2018-11-23T07:39:24.239Z,83.01
2018-11-23T07:39:54.733Z,55.91
2018-11-23T07:40:54.733Z,87.16
2018-11-23T07:42:16.237Z,87.40
2018-11-23T07:42:55.238Z,80.08
2018-11-23T07:44:19.728Z,88.62
2018-11-23T07:45:19.168Z,70.07
2018-11-23T07:45:54.835Z,83.74
2018-11-23T07:46:55.743Z,88.38
2018-11-23T07:47:55.734Z,86.43
2018-11-23T07:48:59.733Z,85.94
2018-11-23T07:49:56.232Z,86.43
2018-11-23T07:50:55.868Z,54.93
2018-11-23T07:54:31.673Z,61.77
2018-11-23T07:55:27.669Z,88.87
2018-11-23T07:56:29.601Z,75.68
2018-11-23T07:57:33.102Z,86.43
2018-11-23T07:58:29.601Z,51.51
2018-11-23T07:59:27.630Z,87.16
2018-11-23T08:00:53.670Z,54.93
2018-11-23T08:01:27.761Z,81.54
2018-11-23T08:02:28.667Z,84.96
2018-11-23T08:03:34.668Z,80.08
2018-11-23T08:07:01.738Z,51.27
2018-11-23T08:08:06.272Z,84.47
2018-11-23T08:11:35.492Z,83.74
2018-11-23T08:12:31.991Z,83.25
2018-11-23T08:13:32.490Z,56.64
2018-11-23T08:14:53.491Z,83.74
2018-11-23T08:15:31.828Z,82.76
2018-11-23T08:16:32.489Z,83.25
2018-11-23T08:20:07.997Z,82.76
2018-11-23T08:21:07.993Z,88.87
2018-11-23T08:24:39.714Z,86.18
2018-11-23T08:25:39.712Z,49.32
2018-11-23T08:26:39.714Z,84.47
2018-11-23T08:27:40.211Z,85.94
2018-11-23T08:28:47.155Z,83.98
2018-11-23T08:29:43.713Z,84.47
2018-11-23T08:30:40.226Z,83.25
2018-11-23T08:37:20.744Z,85.45
2018-11-23T08:38:46.715Z,85.69
2018-11-23T08:39:19.277Z,85.69
2018-11-23T08:40:44.277Z,84.47
2018-11-23T08:41:18.999Z,83.98
2018-11-23T08:44:53.149Z,88.13
2018-11-23T08:45:55.215Z,88.38
2018-11-23T08:49:25.750Z,85.94
2018-11-23T08:50:23.315Z,85.94
2018-11-23T08:53:58.114Z,53.47
2018-11-23T08:55:20.547Z,87.40
2018-11-23T08:58:50.871Z,83.50
2018-11-23T08:59:50.855Z,81.54
2018-11-23T09:00:38.786Z,59.33
2018-11-23T09:01:32.353Z,84.96
2018-11-23T09:02:32.348Z,84.47
2018-11-23T09:03:55.848Z,83.98
2018-11-23T09:04:51.349Z,86.43
2018-11-23T09:08:02.077Z,84.96
2018-11-23T09:09:06.647Z,84.47
2018-11-23T09:12:34.858Z,84.47
2018-11-23T09:13:33.924Z,84.96
2018-11-23T09:14:37.927Z,69.58
2018-11-23T09:15:34.487Z,88.38
2018-11-23T09:19:05.668Z,49.32
2018-11-23T09:24:12.391Z,82.52
2018-11-23T09:25:42.891Z,86.67
2018-11-23T09:26:12.942Z,88.38
2018-11-23T09:29:44.667Z,86.67
2018-11-23T09:30:48.174Z,86.91
2018-11-23T09:31:44.676Z,85.69
2018-11-23T09:32:45.172Z,84.96
2018-11-23T09:33:44.379Z,83.50
2018-11-23T09:34:45.166Z,85.45
2018-11-23T09:35:45.165Z,81.79
2018-11-23T09:39:20.809Z,82.76
2018-11-23T09:40:20.802Z,87.65
2018-11-23T09:46:24.004Z,85.45
2018-11-23T09:47:23.999Z,86.18
2018-11-23T09:48:27.999Z,84.72
2018-11-23T09:49:24.540Z,84.72
2018-11-23T09:50:24.500Z,87.89
2018-11-23T09:51:24.515Z,85.94
2018-11-23T09:52:25.000Z,84.96
2018-11-23T09:53:25.004Z,85.45
2018-11-23T09:57:00.457Z,86.43
2018-11-23T09:58:14.950Z,50.54
2018-11-23T09:59:21.949Z,52.49
2018-11-23T10:00:27.996Z,85.21
2018-11-23T10:01:01.003Z,87.89
2018-11-23T10:02:03.448Z,84.47
2018-11-23T10:03:22.464Z,88.13
2018-11-23T10:04:00.664Z,84.23
2018-11-23T10:05:03.882Z,85.21
2018-11-23T10:06:04.947Z,60.06
2018-11-23T10:07:01.451Z,86.91
2018-11-23T10:08:03.954Z,86.91
2018-11-23T10:09:01.160Z,81.54
2018-11-23T10:12:41.318Z,64.94
2018-11-23T10:13:33.889Z,86.18
2018-11-23T10:14:33.886Z,52.00
2018-11-23T10:15:36.383Z,88.13
2018-11-23T10:16:34.389Z,83.50
2018-11-23T10:17:59.383Z,82.76
2018-11-23T10:18:34.399Z,50.05
2018-11-23T10:19:58.124Z,88.13
2018-11-23T10:20:55.080Z,86.91
2018-11-23T10:21:55.883Z,85.45
2018-11-23T10:22:34.880Z,49.80
2018-11-23T10:23:38.401Z,84.47
2018-11-23T10:24:37.821Z,62.99
2018-11-23T10:25:55.550Z,85.45
2018-11-23T10:26:34.647Z,86.43
2018-11-23T10:27:35.403Z,82.03
2018-11-23T10:28:51.316Z,87.89
2018-11-23T10:29:37.340Z,51.51
2018-11-23T10:30:35.889Z,83.74
2018-11-23T10:34:46.245Z,90.09
2018-11-23T10:35:07.232Z,49.56
2018-11-23T10:36:27.800Z,87.40
2018-11-23T10:37:07.733Z,83.98
2018-11-23T10:38:34.732Z,85.69
2018-11-23T10:39:07.731Z,55.18
2018-11-23T10:42:42.984Z,87.16
2018-11-23T10:43:42.980Z,86.91
2018-11-23T10:44:42.985Z,87.16
2018-11-23T10:46:07.480Z,84.47
2018-11-23T10:46:43.490Z,54.44
2018-11-23T10:47:44.939Z,84.72
2018-11-23T10:48:43.480Z,68.60
2018-11-23T10:49:43.480Z,85.45
2018-11-23T10:51:08.978Z,86.67
2018-11-23T10:52:04.985Z,89.36
2018-11-23T10:52:43.980Z,62.74
2018-11-23T10:55:04.546Z,81.54
2018-11-23T10:55:46.415Z,84.96
2018-11-23T10:57:08.980Z,83.98
2018-11-23T10:57:44.480Z,86.67
2018-11-23T10:58:44.480Z,86.18
2018-11-23T11:00:05.981Z,82.28
2018-11-23T11:00:44.981Z,85.21
2018-11-23T11:01:50.449Z,83.01
2018-11-23T11:10:43.438Z,80.08
2018-11-23T11:11:20.999Z,84.47
2018-11-23T11:12:25.004Z,87.89
2018-11-23T11:13:21.011Z,82.03
2018-11-23T11:14:21.503Z,84.47
2018-11-23T11:15:21.504Z,83.25
2018-11-23T11:16:21.520Z,87.40
2018-11-23T11:17:21.509Z,85.94
2018-11-23T11:18:26.003Z,85.69
2018-11-23T11:19:21.226Z,85.21
2018-11-23T11:20:22.007Z,84.72
2018-11-23T11:21:22.002Z,85.69
2018-11-23T11:24:55.184Z,82.76
2018-11-23T11:25:54.233Z,85.94
2018-11-23T11:27:15.238Z,85.21
2018-11-23T11:28:17.739Z,82.52
2018-11-23T11:29:19.732Z,52.98
2018-11-23T11:29:58.164Z,63.48
2018-11-23T11:30:54.729Z,84.96
2018-11-23T11:32:18.248Z,86.91
2018-11-23T11:32:55.227Z,54.20
2018-11-23T11:33:55.232Z,80.08
2018-11-23T11:35:19.733Z,53.47
2018-11-23T11:36:16.733Z,87.40
2018-11-23T11:37:15.928Z,85.45
2018-11-23T11:37:59.171Z,88.87
2018-11-23T11:38:55.729Z,51.76
2018-11-23T11:40:05.755Z,83.74
2018-11-23T11:45:59.463Z,85.45
2018-11-23T11:47:20.463Z,81.54
2018-11-23T11:48:34.979Z,85.21
2018-11-23T11:53:06.384Z,86.91
2018-11-23T11:54:08.504Z,86.91
2018-11-23T11:55:09.020Z,81.79
2018-11-23T11:56:10.055Z,88.62
2018-11-23T11:57:09.033Z,85.45
2018-11-23T11:58:07.553Z,84.96
2018-11-23T11:59:08.058Z,84.72
2018-11-23T12:00:30.541Z,90.33
2018-11-23T12:01:11.553Z,85.69
2018-11-23T12:02:10.282Z,85.45
2018-11-23T12:05:40.299Z,84.47
2018-11-23T12:07:07.277Z,85.94
2018-11-23T12:10:33.023Z,62.99
2018-11-23T12:13:43.760Z,86.91
2018-11-23T12:15:05.252Z,84.96
2018-11-23T12:16:05.253Z,87.65
2018-11-23T12:16:44.254Z,80.08
2018-11-23T12:17:48.256Z,83.50
2018-11-23T12:18:44.750Z,83.74
2018-11-23T12:19:44.895Z,86.43
2018-11-23T12:23:34.743Z,85.21
2018-11-23T12:24:16.747Z,62.01
2018-11-23T12:27:48.476Z,85.45
2018-11-23T12:28:52.471Z,83.01
2018-11-23T12:30:09.172Z,83.50
2018-11-23T12:30:54.981Z,83.74
2018-11-23T12:32:09.972Z,84.23
2018-11-23T12:32:48.982Z,51.27
2018-11-23T12:34:13.997Z,86.43
2018-11-23T12:34:54.408Z,54.93
2018-11-23T12:38:20.976Z,83.50
2018-11-23T12:39:26.890Z,87.16
2018-11-23T12:42:53.129Z,84.96
2018-11-23T12:43:53.131Z,85.21
2018-11-23T12:50:07.183Z,75.93
2018-11-23T12:51:22.260Z,86.43
2018-11-23T12:52:02.645Z,86.91
2018-11-23T12:56:03.872Z,79.83
2018-11-23T12:56:32.877Z,50.54
2018-11-23T12:57:54.381Z,86.43
2018-11-23T12:58:33.371Z,86.91
2018-11-23T12:59:33.391Z,86.43
2018-11-23T13:00:32.840Z,85.94
2018-11-23T13:04:10.536Z,82.52
2018-11-23T13:05:11.497Z,84.96
2018-11-23T13:08:40.754Z,84.96
2018-11-23T13:09:42.747Z,84.96
2018-11-23T13:10:41.246Z,90.58
2018-11-23T13:11:40.460Z,84.23
2018-11-23T13:13:06.246Z,85.45
2018-11-23T13:16:12.764Z,84.96
2018-11-23T13:17:15.454Z,85.94
2018-11-23T13:18:16.734Z,88.87
2018-11-23T13:19:13.231Z,55.91
2018-11-23T13:20:13.233Z,84.96
2018-11-23T13:21:14.694Z,85.94
2018-11-23T13:22:12.908Z,86.18
2018-11-23T13:23:37.974Z,82.52
2018-11-23T13:24:13.729Z,63.48
2018-11-23T13:25:15.163Z,86.91
2018-11-23T13:29:10.827Z,87.16
2018-11-23T13:29:45.955Z,83.50
2018-11-23T13:30:46.464Z,87.16
2018-11-23T13:32:07.478Z,85.21
2018-11-23T13:32:46.459Z,87.16
2018-11-23T13:34:00.391Z,85.69
2018-11-23T13:34:46.968Z,89.11
2018-11-23T13:35:46.176Z,86.18
2018-11-23T13:36:46.955Z,84.47
2018-11-23T13:37:46.954Z,66.16
2018-11-23T13:38:47.458Z,51.51
2018-11-23T13:40:10.737Z,84.96
2018-11-23T13:40:47.453Z,86.18
2018-11-23T13:42:08.451Z,81.79
2018-11-23T13:43:08.458Z,83.50
2018-11-23T13:43:47.052Z,84.72
2018-11-23T13:45:12.456Z,88.38
2018-11-23T13:46:08.955Z,83.74
2018-11-23T13:46:47.296Z,85.69
2018-11-23T13:47:49.409Z,84.72
2018-11-23T13:49:11.454Z,87.65
2018-11-23T13:50:12.956Z,84.47
2018-11-23T13:50:48.454Z,83.50
2018-11-23T13:51:48.468Z,85.94
2018-11-23T13:52:54.463Z,85.21
2018-11-23T13:56:20.198Z,87.65
2018-11-23T13:57:20.220Z,85.69
2018-11-23T13:58:34.697Z,82.28
2018-11-23T14:01:52.553Z,88.13
2018-11-23T14:02:52.553Z,50.05
2018-11-23T14:03:53.053Z,83.98
2018-11-23T14:07:45.416Z,85.21
2018-11-23T14:08:24.416Z,83.50
2018-11-23T14:09:24.918Z,84.47
2018-11-23T14:10:24.923Z,84.96
2018-11-23T14:11:34.921Z,88.38
2018-11-23T14:12:26.934Z,82.52
2018-11-23T14:14:00.420Z,76.17
2018-11-23T14:14:46.416Z,50.54
2018-11-23T14:15:25.418Z,85.94
2018-11-23T14:16:25.423Z,88.87
2018-11-23T14:17:33.857Z,84.23
2018-11-23T14:18:25.919Z,83.98
2018-11-23T14:24:52.072Z,83.01
2018-11-23T14:25:50.616Z,48.83
2018-11-23T14:29:04.596Z,82.76
2018-11-23T14:30:01.098Z,89.84
2018-11-23T14:31:23.572Z,81.54
2018-11-23T14:32:03.053Z,87.89
2018-11-23T14:33:01.600Z,88.87
2018-11-23T14:34:05.601Z,83.01
2018-11-23T14:35:22.598Z,85.94
2018-11-23T14:38:33.331Z,85.94
2018-11-23T14:39:58.332Z,90.33
2018-11-23T14:43:04.399Z,86.43
2018-11-23T14:44:06.926Z,86.18
2018-11-23T14:45:08.567Z,83.98
2018-11-23T14:46:04.657Z,83.01
2018-11-23T14:47:05.567Z,84.72
2018-11-23T14:48:05.572Z,88.13
2018-11-23T14:49:05.567Z,81.79
2018-11-23T14:50:10.067Z,83.25
2018-11-23T14:51:06.066Z,84.47
2018-11-23T14:52:27.070Z,83.50
2018-11-23T14:53:06.064Z,85.45
2018-11-23T14:54:06.574Z,86.18
2018-11-23T14:55:31.569Z,86.43
2018-11-23T14:56:08.000Z,51.03
2018-11-23T14:57:27.571Z,83.50
2018-11-23T14:58:07.067Z,85.21
2018-11-23T14:59:07.066Z,83.74
2018-11-23T15:00:42.069Z,83.50
2018-11-23T15:01:11.064Z,85.94
2018-11-23T15:04:39.295Z,87.89
2018-11-23T15:06:00.295Z,64.70
2018-11-23T15:09:13.399Z,85.69
2018-11-23T15:10:14.066Z,85.94
2018-11-23T15:11:14.068Z,86.91
2018-11-23T15:12:17.065Z,86.91
2018-11-23T15:13:14.566Z,87.89
2018-11-23T15:14:35.565Z,84.47
2018-11-23T15:15:14.564Z,85.45
2018-11-23T15:16:15.062Z,84.23
2018-11-23T15:17:38.695Z,85.21
2018-11-23T15:18:35.394Z,83.98
2018-11-23T15:19:15.065Z,85.21
2018-11-23T15:20:15.085Z,85.69
2018-11-23T15:21:15.570Z,88.38
2018-11-23T15:22:15.564Z,83.98
2018-11-23T15:23:19.565Z,85.21
2018-11-23T15:24:15.568Z,86.67
2018-11-23T15:25:16.065Z,85.69
2018-11-23T15:26:16.064Z,83.98
2018-11-23T15:27:16.064Z,56.15
2018-11-23T15:28:15.533Z,88.38
2018-11-23T15:29:19.562Z,86.67
2018-11-23T15:30:16.564Z,86.43
2018-11-23T15:31:16.564Z,84.47
2018-11-23T15:32:16.571Z,83.25
2018-11-23T15:33:38.067Z,83.98
2018-11-23T15:34:20.565Z,49.32
2018-11-23T15:35:37.382Z,84.23
2018-11-23T15:36:38.069Z,66.89
2018-11-23T15:37:17.060Z,83.50
2018-11-23T15:38:17.566Z,59.57
2018-11-23T15:39:17.565Z,85.21
2018-11-23T15:40:42.592Z,80.32
2018-11-23T15:41:17.563Z,88.87
2018-11-23T15:42:40.545Z,86.91
2018-11-23T15:43:18.063Z,84.47
2018-11-23T15:44:19.037Z,85.69
2018-11-23T15:45:17.518Z,84.72
2018-11-23T15:46:21.562Z,85.69
2018-11-23T15:47:18.568Z,82.52
2018-11-23T15:48:17.775Z,84.72
2018-11-23T15:49:18.563Z,85.94
2018-11-23T15:50:19.532Z,85.21
2018-11-23T15:51:23.997Z,83.74
2018-11-23T15:54:50.783Z,80.08
2018-11-23T15:55:50.785Z,84.47
2018-11-23T15:56:54.285Z,85.94
2018-11-23T16:02:12.451Z,82.52
2018-11-23T16:02:54.951Z,84.96
2018-11-23T16:03:54.950Z,86.43
2018-11-23T16:04:55.448Z,85.45
2018-11-23T16:06:17.419Z,48.83
2018-11-23T16:06:55.450Z,84.96
2018-11-23T16:10:38.019Z,84.96
2018-11-23T16:11:31.990Z,87.16
2018-11-23T16:12:31.990Z,81.54
2018-11-23T16:13:38.490Z,84.47
2018-11-23T16:14:53.490Z,82.76
2018-11-23T16:15:32.490Z,88.38
2018-11-23T16:16:53.488Z,87.16
2018-11-23T16:17:34.992Z,68.36
2018-11-23T16:18:38.425Z,86.18
2018-11-23T16:19:32.993Z,85.45
2018-11-23T16:20:32.993Z,85.94
2018-11-23T16:21:32.998Z,86.43
2018-11-23T16:25:25.725Z,55.42
2018-11-23T16:26:06.167Z,59.81
2018-11-23T16:27:26.223Z,57.13
2018-11-23T16:28:05.229Z,87.40
2018-11-23T16:29:09.224Z,81.30
2018-11-23T16:30:05.225Z,58.11
2018-11-23T16:31:05.224Z,86.18
2018-11-23T16:34:46.956Z,85.94
2018-11-23T16:35:37.454Z,49.32
2018-11-23T16:36:37.960Z,85.69
2018-11-23T16:40:13.325Z,85.21
2018-11-23T16:41:09.321Z,49.80
2018-11-23T16:42:09.813Z,85.94
2018-11-23T16:43:11.281Z,59.08
2018-11-23T16:44:09.818Z,87.16
2018-11-23T16:45:34.812Z,88.62
2018-11-23T16:46:10.313Z,80.81
2018-11-23T16:52:13.637Z,85.45
2018-11-23T16:53:35.136Z,83.98
2018-11-23T16:54:35.137Z,83.50
2018-11-23T16:55:35.147Z,81.54
2018-11-23T16:56:14.142Z,82.03
2018-11-23T16:57:38.638Z,84.72
2018-11-23T16:58:14.636Z,79.35
2018-11-23T16:59:14.636Z,85.94
2018-11-23T17:03:11.238Z,86.18
2018-11-23T17:08:14.406Z,87.65
2018-11-23T17:08:49.900Z,85.21
2018-11-23T17:09:49.901Z,86.18
2018-11-23T17:11:10.470Z,68.36
2018-11-23T17:12:11.399Z,82.28
2018-11-23T17:12:50.399Z,84.23
2018-11-23T17:13:54.404Z,85.45
2018-11-23T17:14:50.400Z,81.05
2018-11-23T17:16:11.899Z,84.23
2018-11-23T17:17:13.336Z,73.97
2018-11-23T17:17:50.914Z,78.13
2018-11-23T17:18:50.900Z,79.59
2018-11-23T17:19:54.406Z,83.25
2018-11-23T17:21:12.399Z,84.96
2018-11-23T17:21:51.402Z,61.28
2018-11-23T17:22:51.441Z,84.23
2018-11-23T17:24:12.903Z,88.87
2018-11-23T17:24:55.400Z,85.94
2018-11-23T17:25:51.898Z,83.98
2018-11-23T17:26:51.903Z,80.81
2018-11-23T17:30:55.138Z,46.63
2018-11-23T17:31:24.130Z,84.72
2018-11-23T17:32:24.634Z,83.25
2018-11-23T17:33:24.565Z,82.52
2018-11-23T17:34:26.565Z,88.87
2018-11-23T17:35:28.130Z,47.61
2018-11-23T17:36:25.136Z,79.35
2018-11-23T17:37:25.130Z,53.47
2018-11-23T17:38:26.063Z,82.76
2018-11-23T17:39:25.129Z,83.98
2018-11-23T17:40:49.631Z,83.01
2018-11-23T17:41:25.624Z,81.79
2018-11-23T17:42:25.630Z,47.61
2018-11-23T17:43:25.635Z,90.33
2018-11-23T17:44:26.128Z,86.43
2018-11-23T17:45:26.128Z,86.67
2018-11-23T17:46:50.643Z,72.51
2018-11-23T17:47:25.605Z,66.89
2018-11-23T17:48:25.693Z,86.67
2018-11-23T17:53:51.853Z,46.63
2018-11-23T17:54:30.852Z,60.55